Time;durP1;ratioP1;P1;durP2;ratioP2;P2;SDS_P1;SDS_P2;PMS_P1;PMS_P2;Temp;Humidity;BMP_temperature;BMP_pressure;BME280_temperature;BME280_humidity;BME280_pressure;Samples;Min_cycle;Max_cycle;Signal;HPM_P1;HPM_P2
2024/02/08 00:00:40;;;;;;;11.32;5.05;;;1.60;99.90;;;;;;5053850;28;20049;-74
2024/02/08 00:03:10;;;;;;;11.65;5.68;;;1.60;99.90;;;;;;5053966;28;20416;-74
2024/02/08 00:05:37;;;;;;;14.05;5.25;;;1.60;99.90;;;;;;5052591;28;20037;-75
2024/02/08 00:08:04;;;;;;;10.00;4.97;;;1.60;99.90;;;;;;5052488;28;20125;-76
2024/02/08 00:10:30;;;;;;;18.38;6.00;;;1.60;99.90;;;;;;5052340;28;20055;-74
2024/02/08 00:12:56;;;;;;;11.43;6.07;;;1.70;99.90;;;;;;5052564;28;20029;-74
2024/02/08 00:15:21;;;;;;;13.82;6.00;;;1.70;99.90;;;;;;5052362;28;20122;-75
2024/02/08 00:17:47;;;;;;;10.75;5.30;;;1.70;99.90;;;;;;5052360;28;20045;-75
2024/02/08 00:20:15;;;;;;;10.80;5.10;;;1.70;99.90;;;;;;5053225;28;20488;-75
2024/02/08 00:22:43;;;;;;;9.32;5.13;;;1.70;99.90;;;;;;5052352;28;20061;-75
2024/02/08 00:25:09;;;;;;;8.45;4.80;;;1.60;99.90;;;;;;5052877;28;20057;-74
2024/02/08 00:27:35;;;;;;;12.40;5.15;;;1.60;99.90;;;;;;5035794;28;20507;-75
2024/02/08 00:30:01;;;;;;;11.70;5.00;;;1.50;99.90;;;;;;5052188;28;20040;-75
2024/02/08 00:32:28;;;;;;;14.32;6.82;;;1.50;99.90;;;;;;5051344;28;20052;-75
2024/02/08 00:34:53;;;;;;;17.15;6.53;;;1.60;99.90;;;;;;5052161;28;20045;-75
2024/02/08 00:37:19;;;;;;;10.30;5.35;;;1.60;99.90;;;;;;5052353;28;20552;-75
2024/02/08 00:39:44;;;;;;;10.90;5.15;;;1.50;99.90;;;;;;5051996;28;20497;-75
2024/02/08 00:42:13;;;;;;;9.77;5.75;;;1.60;99.90;;;;;;5053336;28;20036;-75
2024/02/08 00:44:42;;;;;;;16.98;6.90;;;1.40;99.90;;;;;;5051976;28;20048;-75
2024/02/08 00:47:11;;;;;;;25.92;6.18;;;1.50;99.90;;;;;;5051828;28;20047;-75
2024/02/08 00:49:39;;;;;;;11.10;5.43;;;1.50;99.90;;;;;;5052644;28;20036;-75
2024/02/08 00:52:08;;;;;;;18.15;5.43;;;1.50;99.90;;;;;;5052085;28;20098;-75
2024/02/08 00:54:35;;;;;;;9.80;5.97;;;1.40;99.90;;;;;;5051646;28;20037;-74
2024/02/08 00:57:07;;;;;;;11.88;5.75;;;1.50;99.90;;;;;;5051590;28;20080;-75
2024/02/08 00:59:37;;;;;;;11.93;5.75;;;1.40;99.90;;;;;;5051322;28;20051;-75
2024/02/08 01:02:04;;;;;;;14.80;6.22;;;1.40;99.90;;;;;;5051710;28;20397;-75
2024/02/08 01:04:30;;;;;;;9.05;5.13;;;1.30;99.90;;;;;;5051426;28;20537;-75
2024/02/08 01:06:55;;;;;;;11.35;5.68;;;1.40;99.90;;;;;;5051398;28;20037;-75
2024/02/08 01:09:21;;;;;;;10.77;5.63;;;1.40;99.90;;;;;;5052727;28;20115;-75
2024/02/08 01:11:47;;;;;;;11.80;5.93;;;1.40;99.90;;;;;;5051683;28;20039;-76
2024/02/08 01:14:12;;;;;;;17.67;7.00;;;1.40;99.90;;;;;;5052589;28;20385;-76
2024/02/08 01:16:45;;;;;;;14.30;5.82;;;1.40;99.90;;;;;;5034697;28;20048;-76
2024/02/08 01:19:11;;;;;;;16.58;5.88;;;1.30;99.90;;;;;;5051485;28;20075;-75
2024/02/08 01:21:36;;;;;;;15.73;5.45;;;1.40;99.90;;;;;;5052109;28;20493;-75
2024/02/08 01:24:02;;;;;;;12.43;5.45;;;1.40;99.90;;;;;;5051257;28;20079;-76
2024/02/08 01:26:28;;;;;;;10.80;4.55;;;1.20;99.90;;;;;;5052450;28;20090;-76
2024/02/08 01:28:54;;;;;;;11.40;4.88;;;1.20;99.90;;;;;;5051135;28;20033;-76
2024/02/08 01:31:20;;;;;;;9.77;5.40;;;1.20;99.90;;;;;;5050648;28;20499;-76
2024/02/08 01:33:48;;;;;;;21.55;7.13;;;1.30;99.90;;;;;;5052394;28;20098;-76
2024/02/08 01:36:15;;;;;;;14.18;5.53;;;1.40;99.90;;;;;;5050892;28;20048;-76
2024/02/08 01:38:42;;;;;;;12.27;5.32;;;1.40;99.90;;;;;;5034155;28;20083;-75
2024/02/08 01:41:09;;;;;;;13.88;5.93;;;1.30;99.90;;;;;;5050596;28;20513;-76
2024/02/08 01:43:35;;;;;;;16.05;5.65;;;1.30;99.90;;;;;;5051041;28;20091;-76
2024/02/08 01:46:02;;;;;;;16.48;5.22;;;1.30;99.90;;;;;;5050576;28;20088;-75
2024/02/08 01:48:29;;;;;;;13.05;5.43;;;1.30;99.90;;;;;;5050633;28;20051;-77
2024/02/08 01:50:59;;;;;;;10.35;4.97;;;1.20;99.90;;;;;;5050676;28;20037;-76
2024/02/08 01:53:29;;;;;;;13.73;4.60;;;1.20;99.90;;;;;;5050832;28;20037;-75
2024/02/08 01:55:58;;;;;;;15.68;5.85;;;1.40;99.90;;;;;;5033971;28;20037;-76
2024/02/08 01:58:25;;;;;;;7.63;4.50;;;1.40;99.90;;;;;;5050344;28;20036;-77
2024/02/08 02:00:52;;;;;;;12.82;4.90;;;1.30;99.90;;;;;;5050320;28;20083;-76
2024/02/08 02:03:23;;;;;;;14.40;5.28;;;1.40;99.90;;;;;;5050752;28;20397;-76
2024/02/08 02:05:49;;;;;;;8.10;4.85;;;1.30;99.90;;;;;;5051655;28;20463;-76
2024/02/08 02:08:21;;;;;;;7.88;3.92;;;1.30;99.90;;;;;;5051517;28;20071;-75
2024/02/08 02:11:05;;;;;;;10.23;5.43;;;1.30;99.90;;;;;;5051411;28;20029;-75
2024/02/08 02:13:33;;;;;;;;;;;1.20;99.90;;;;;;5051135;28;20041;-76
2024/02/08 02:15:58;;;;;;;8.60;4.93;;;1.20;99.90;;;;;;5051646;28;19920;-76
2024/02/08 02:18:26;;;;;;;11.63;5.68;;;1.30;99.90;;;;;;5051574;28;20040;-76
2024/02/08 02:20:54;;;;;;;9.80;4.50;;;1.10;99.90;;;;;;5033515;28;20037;-76
2024/02/08 02:23:20;;;;;;;15.27;4.80;;;1.20;99.90;;;;;;5050222;28;20097;-76
2024/02/08 02:25:53;;;;;;;10.63;4.57;;;1.30;99.90;;;;;;5050253;28;20044;-76
2024/02/08 02:28:20;;;;;;;7.45;4.30;;;1.10;99.90;;;;;;5050323;28;20412;-76
2024/02/08 02:30:46;;;;;;;13.30;4.30;;;1.30;99.90;;;;;;5050079;28;20041;-76
2024/02/08 02:33:13;;;;;;;7.80;3.95;;;1.10;99.90;;;;;;5050445;28;20546;-76
2024/02/08 02:35:41;;;;;;;7.07;3.72;;;1.10;99.90;;;;;;5050398;28;20417;-77
2024/02/08 02:38:12;;;;;;;9.13;5.55;;;1.30;99.90;;;;;;5050176;28;20049;-77
2024/02/08 02:40:41;;;;;;;11.10;4.25;;;1.10;99.90;;;;;;5049943;28;20049;-74
2024/02/08 02:43:10;;;;;;;7.68;4.45;;;1.10;99.90;;;;;;5050282;28;20049;-75
2024/02/08 02:45:39;;;;;;;15.95;4.80;;;1.10;99.90;;;;;;5049978;28;20519;-75
2024/02/08 02:48:05;;;;;;;15.23;5.50;;;1.10;99.90;;;;;;5049972;28;20051;-75
2024/02/08 02:50:32;;;;;;;11.73;4.68;;;1.20;99.90;;;;;;5050955;28;20043;-75
2024/02/08 02:52:58;;;;;;;10.63;4.68;;;1.20;99.90;;;;;;5051608;28;20106;-76
2024/02/08 02:55:24;;;;;;;14.60;5.22;;;1.20;99.90;;;;;;5034679;28;20045;-76
2024/02/08 02:57:49;;;;;;;10.15;4.50;;;1.10;99.90;;;;;;5055296;28;20037;-75
2024/02/08 03:00:21;;;;;;;13.43;4.55;;;1.10;99.90;;;;;;5053713;28;20124;-75
2024/02/08 03:02:49;;;;;;;9.43;4.10;;;1.10;99.90;;;;;;5037498;28;20084;-74
2024/02/08 03:05:17;;;;;;;11.90;5.53;;;1.10;99.90;;;;;;5053687;28;20048;-74
2024/02/08 03:07:45;;;;;;;13.40;5.75;;;1.10;99.90;;;;;;5055310;28;20041;-75
2024/02/08 03:10:12;;;;;;;9.77;4.63;;;1.20;99.90;;;;;;5053544;28;20033;-74
2024/02/08 03:12:38;;;;;;;17.45;4.97;;;1.20;99.90;;;;;;5053819;28;20094;-75
2024/02/08 03:15:09;;;;;;;6.93;4.85;;;1.10;99.90;;;;;;5053577;28;20041;-75
2024/02/08 03:17:40;;;;;;;14.55;5.32;;;1.10;99.90;;;;;;5036837;28;20122;-75
2024/02/08 03:20:08;;;;;;;10.93;4.00;;;1.10;99.90;;;;;;5036546;28;20048;-75
2024/02/08 03:22:35;;;;;;;8.60;4.38;;;1.10;99.90;;;;;;5037183;28;20408;-75
2024/02/08 03:25:07;;;;;;;14.68;5.43;;;1.20;99.90;;;;;;5036927;28;20063;-75
2024/02/08 03:27:33;;;;;;;10.00;4.78;;;1.30;99.90;;;;;;5053338;28;20044;-75
2024/02/08 03:30:00;;;;;;;8.77;4.65;;;1.20;99.90;;;;;;5054439;28;20055;-73
2024/02/08 03:32:27;;;;;;;10.27;4.25;;;1.20;99.90;;;;;;5053365;28;20064;-75
2024/02/08 03:34:53;;;;;;;13.45;4.63;;;1.30;99.90;;;;;;5036669;28;20052;-74
2024/02/08 03:37:22;;;;;;;12.90;4.70;;;1.30;99.90;;;;;;5054685;28;20041;-74
2024/02/08 03:39:48;;;;;;;17.02;4.80;;;1.40;99.90;;;;;;5054206;28;20614;-74
2024/02/08 03:42:16;;;;;;;12.73;4.53;;;1.30;99.90;;;;;;5054542;28;20063;-74
2024/02/08 03:44:42;;;;;;;11.35;4.40;;;1.30;99.90;;;;;;5054239;28;20451;-74
2024/02/08 03:47:08;;;;;;;13.93;4.88;;;1.40;99.90;;;;;;5053376;28;20048;-75
2024/02/08 03:49:35;;;;;;;10.45;3.60;;;1.40;99.90;;;;;;5052852;28;20032;-75
2024/02/08 03:52:02;;;;;;;8.15;3.65;;;1.50;99.90;;;;;;5036539;28;20037;-75
2024/02/08 03:54:30;;;;;;;7.50;4.15;;;1.60;99.90;;;;;;5036780;28;20460;-75
2024/02/08 03:56:59;;;;;;;16.48;3.83;;;1.50;99.90;;;;;;5052823;28;20086;-74
2024/02/08 03:59:28;;;;;;;7.40;3.65;;;1.50;99.90;;;;;;5034249;28;20045;-74
2024/02/08 04:02:05;;;;;;;11.02;3.70;;;1.60;99.90;;;;;;5033293;28;20041;-74
2024/02/08 04:04:49;;;;;;;7.75;3.80;;;1.60;99.90;;;;;;5033135;28;20133;-75
2024/02/08 04:07:22;;;;;;;8.75;4.00;;;1.50;99.90;;;;;;5032113;28;20400;-73
2024/02/08 04:09:55;;;;;;;10.18;4.35;;;1.50;99.90;;;;;;5034099;28;20080;-74
2024/02/08 04:53:44;;;;;;;8.02;4.15;;;1.20;99.90;;;;;;5072863;28;20052;-73
2024/02/08 04:56:11;;;;;;;13.50;5.78;;;1.30;99.90;;;;;;5072940;28;20044;-73
2024/02/08 04:58:40;;;;;;;11.02;4.82;;;1.10;99.90;;;;;;5071558;28;20055;-72
2024/02/08 05:01:10;;;;;;;13.98;4.82;;;1.20;99.90;;;;;;5071227;28;20051;-73
2024/02/08 05:03:38;;;;;;;12.55;4.68;;;1.10;99.90;;;;;;5073088;28;20037;-73
2024/02/08 05:06:10;;;;;;;12.50;4.40;;;1.10;99.90;;;;;;5055076;28;20123;-73
2024/02/08 05:08:38;;;;;;;10.95;4.40;;;1.20;99.90;;;;;;5073005;28;20043;-72
2024/02/08 05:11:03;;;;;;;12.60;4.25;;;1.30;99.90;;;;;;5072538;28;20044;-72
2024/02/08 05:13:29;;;;;;;12.60;4.28;;;1.20;99.90;;;;;;5072576;28;20403;-73
2024/02/08 05:15:55;;;;;;;11.25;4.32;;;1.20;99.90;;;;;;5072663;28;20052;-73
2024/02/08 05:18:22;;;;;;;7.70;3.75;;;1.20;99.90;;;;;;5072192;28;20043;-72
2024/02/08 05:20:48;;;;;;;14.63;4.20;;;1.10;99.90;;;;;;5070933;28;20450;-72
2024/02/08 05:23:13;;;;;;;9.68;4.65;;;1.20;99.90;;;;;;5072594;28;20041;-73
2024/02/08 05:25:40;;;;;;;12.18;4.68;;;1.10;99.90;;;;;;5071012;28;20037;-73
2024/02/08 05:28:07;;;;;;;8.23;4.95;;;1.20;99.90;;;;;;5072238;28;20037;-73
2024/02/08 05:30:33;;;;;;;10.63;4.60;;;1.10;99.90;;;;;;5072130;28;20079;-73
2024/02/08 05:33:01;;;;;;;9.63;3.95;;;1.20;99.90;;;;;;5072184;28;20408;-72
2024/02/08 05:35:26;;;;;;;11.18;3.72;;;1.20;99.90;;;;;;5054270;28;20127;-73
2024/02/08 05:37:53;;;;;;;12.48;3.95;;;1.20;99.90;;;;;;5072303;28;20115;-73
2024/02/08 05:40:20;;;;;;;8.07;3.90;;;1.20;99.90;;;;;;5070082;28;20048;-73
2024/02/08 05:42:47;;;;;;;9.55;4.22;;;1.30;99.90;;;;;;5070735;28;20052;-72
2024/02/08 05:45:19;;;;;;;11.52;4.90;;;1.20;99.90;;;;;;5070664;28;20045;-73
2024/02/08 05:47:48;;;;;;;8.55;4.10;;;1.20;99.90;;;;;;5070681;28;20101;-73
2024/02/08 05:50:24;;;;;;;9.77;4.28;;;1.30;99.90;;;;;;5070639;28;20045;-73
2024/02/08 05:52:56;;;;;;;14.90;4.65;;;1.40;99.90;;;;;;5072072;28;20050;-73
2024/02/08 05:55:25;;;;;;;11.93;4.03;;;1.50;99.90;;;;;;5071989;28;20093;-73
2024/02/08 05:57:58;;;;;;;9.85;4.10;;;1.40;99.90;;;;;;5070454;28;20111;-73
2024/02/08 06:00:35;;;;;;;14.20;5.10;;;1.40;99.90;;;;;;5070346;28;20047;-73
2024/02/08 06:03:03;;;;;;;9.95;3.95;;;1.60;99.90;;;;;;5070173;28;20548;-73
2024/02/08 06:05:32;;;;;;;13.38;3.92;;;1.60;99.90;;;;;;5071644;28;20041;-74
2024/02/08 06:07:59;;;;;;;10.27;4.03;;;1.60;99.90;;;;;;5071692;28;20055;-73
2024/02/08 06:10:42;;;;;;;10.45;4.00;;;1.60;99.90;;;;;;5071293;28;20044;-72
2024/02/08 06:13:14;;;;;;;8.90;4.85;;;1.60;99.90;;;;;;5070732;28;20166;-73
2024/02/08 06:15:46;;;;;;;10.57;3.60;;;1.60;99.90;;;;;;5070423;28;20044;-73
2024/02/08 06:18:19;;;;;;;9.25;4.20;;;1.60;99.90;;;;;;5070349;28;20044;-73
2024/02/08 06:20:51;;;;;;;10.82;3.88;;;1.60;99.90;;;;;;5069979;28;20409;-73
2024/02/08 06:23:27;;;;;;;12.23;3.63;;;1.60;99.90;;;;;;5070593;28;20041;-73
2024/02/08 06:28:37;;;;;;;8.30;3.65;;;1.70;99.90;;;;;;5071670;28;20052;-73
2024/02/08 06:31:06;;;;;;;8.65;3.53;;;1.60;99.90;;;;;;5069823;28;20540;-73
2024/02/08 06:33:42;;;;;;;7.82;3.20;;;1.70;99.90;;;;;;5070486;28;20424;-73
2024/02/08 06:36:08;;;;;;;11.90;3.30;;;1.60;99.90;;;;;;5071547;28;20091;-73
2024/02/08 06:38:41;;;;;;;9.85;3.50;;;1.70;99.90;;;;;;5070133;28;20315;-73
2024/02/08 06:41:09;;;;;;;11.30;4.73;;;1.60;99.90;;;;;;5069910;28;20059;-73
2024/02/08 06:46:39;;;;;;;12.70;4.45;;;1.80;99.90;;;;;;5071402;28;20420;-72
2024/02/08 07:38:49;;;;;;;9.68;3.53;;;2.00;99.90;;;;;;5069596;28;20056;-73
2024/02/08 07:41:07;;;;;;;12.50;3.60;;;2.10;99.90;;;;;;5070923;28;20442;-73
2024/02/08 07:43:36;;;;;;;16.23;4.20;;;1.90;99.90;;;;;;5073293;28;20048;-73
2024/02/08 07:46:04;;;;;;;11.50;4.80;;;2.00;99.90;;;;;;5072929;28;20499;-73
2024/02/08 07:48:39;;;;;;;10.38;3.95;;;2.00;99.90;;;;;;5074121;28;20048;-73
2024/02/08 07:51:05;;;;;;;12.77;4.85;;;2.00;99.90;;;;;;5073004;28;20128;-72
2024/02/08 07:53:35;;;;;;;7.00;3.97;;;2.00;99.90;;;;;;5074332;28;20064;-73
2024/02/08 07:56:29;;;;;;;10.48;4.88;;;2.10;99.90;;;;;;5074320;28;20502;-72
2024/02/08 07:58:56;;;;;;;;;;;2.10;99.90;;;;;;5074447;28;20052;-73
2024/02/08 08:01:29;;;;;;;9.50;3.80;;;2.10;99.90;;;;;;5074083;28;20330;-73
2024/02/08 08:03:56;;;;;;;;;;;2.10;99.90;;;;;;5073954;28;20032;-73
2024/02/08 08:06:25;;;;;;;14.48;3.97;;;2.10;99.90;;;;;;5072155;28;19967;-73
2024/02/08 08:09:18;;;;;;;9.30;4.78;;;2.20;99.90;;;;;;5055833;28;20039;-73
2024/02/08 08:11:47;;;;;;;8.38;3.15;;;2.20;99.90;;;;;;5073666;28;20514;-73
2024/02/08 08:15:04;;;;;;;9.85;4.57;;;2.20;99.90;;;;;;5074018;28;20044;-73
2024/02/08 08:19:53;;;;;;;19.65;4.22;;;2.30;99.90;;;;;;5051534;28;20045;-73
2024/02/08 08:22:50;;;;;;;13.32;3.47;;;2.40;99.90;;;;;;5073399;28;20044;-74
2024/02/08 08:27:47;;;;;;;18.58;4.90;;;2.50;99.90;;;;;;5073451;28;20534;-73
2024/02/08 08:30:27;;;;;;;11.07;3.88;;;2.40;99.90;;;;;;5072562;28;20502;-73
2024/02/08 08:35:37;;;;;;;9.27;4.45;;;2.50;99.90;;;;;;5072829;28;20516;-73
2024/02/08 08:40:48;;;;;;;12.68;3.88;;;2.50;99.90;;;;;;5070936;28;20044;-73
2024/02/08 08:43:19;;;;;;;11.38;4.18;;;2.50;99.90;;;;;;5064934;28;20048;-73
2024/02/08 08:45:52;;;;;;;15.25;5.28;;;2.60;99.90;;;;;;5073508;28;20058;-74
2024/02/08 08:48:18;;;;;;;15.57;4.05;;;2.60;99.90;;;;;;5073290;28;20078;-74
2024/02/08 08:50:54;;;;;;;12.95;4.15;;;2.60;99.90;;;;;;5071513;28;20040;-73
2024/02/08 08:53:27;;;;;;;10.20;4.25;;;2.50;99.90;;;;;;5064178;28;20111;-73
2024/02/08 08:55:56;;;;;;;14.18;3.25;;;2.60;99.90;;;;;;5072082;28;20044;-73
2024/02/08 08:58:27;;;;;;;15.88;4.43;;;2.50;99.90;;;;;;5073190;28;20048;-74
2024/02/08 09:03:39;;;;;;;11.07;4.55;;;2.70;99.90;;;;;;5063584;28;20447;-72
2024/02/08 09:06:12;;;;;;;15.98;5.43;;;2.80;99.90;;;;;;5071658;28;20044;-73
2024/02/08 09:08:43;;;;;;;15.63;4.80;;;2.80;99.90;;;;;;5071112;28;20407;-72
2024/02/08 09:11:19;;;;;;;15.20;5.40;;;2.90;99.90;;;;;;5066917;28;20055;-73
2024/02/08 09:13:51;;;;;;;9.65;4.85;;;2.90;99.90;;;;;;5068229;28;20044;-74
2024/02/08 09:21:35;;;;;;;14.90;4.65;;;3.20;99.90;;;;;;5071103;28;20114;-74
2024/02/08 09:24:07;;;;;;;9.55;4.25;;;3.30;99.90;;;;;;5072029;28;20036;-73
2024/02/08 09:26:52;;;;;;;12.70;3.23;;;3.30;99.90;;;;;;5070632;28;20033;-73
2024/02/08 09:29:24;;;;;;;8.23;3.60;;;3.40;99.90;;;;;;5070981;28;20070;-73
2024/02/08 09:31:58;;;;;;;10.10;4.00;;;3.30;99.90;;;;;;5068745;28;20046;-73
2024/02/08 09:34:37;;;;;;;11.85;4.43;;;3.50;99.90;;;;;;5054177;28;20028;-73
2024/02/08 09:37:07;;;;;;;13.27;4.13;;;3.50;99.90;;;;;;5086694;28;20089;-72
2024/02/08 09:42:29;;;;;;;13.30;4.00;;;3.50;99.90;;;;;;5072164;28;20044;-70
2024/02/08 09:45:18;;;;;;;13.65;4.05;;;3.40;99.90;;;;;;5070859;28;20058;-70
2024/02/08 09:47:51;;;;;;;10.18;3.67;;;3.50;99.90;;;;;;5070979;28;20036;-70
2024/02/08 09:50:35;;;;;;;;;;;3.50;99.90;;;;;;5070930;28;20070;-70
2024/02/08 09:53:15;;;;;;;12.90;3.75;;;3.60;99.90;;;;;;5071018;28;19990;-70
2024/02/08 09:55:55;;;;;;;12.93;3.90;;;3.70;99.90;;;;;;5070589;28;20044;-70
2024/02/08 09:58:37;;;;;;;13.98;6.20;;;3.60;99.90;;;;;;5070468;28;20072;-74
2024/02/08 10:01:22;;;;;;;8.05;3.45;;;3.80;99.90;;;;;;5069877;28;20097;-73
2024/02/08 10:04:04;;;;;;;11.10;3.05;;;4.10;99.90;;;;;;5071791;28;20051;-74
2024/02/08 10:06:45;;;;;;;8.93;3.63;;;4.20;99.90;;;;;;5069645;28;20068;-73
2024/02/08 10:12:06;;;;;;;12.70;3.50;;;4.50;99.90;;;;;;5068978;28;20041;-74
2024/02/08 10:14:35;;;;;;;11.18;2.60;;;4.50;99.90;;;;;;5070043;28;20041;-74
2024/02/08 10:17:24;;;;;;;9.27;3.10;;;4.60;99.90;;;;;;5053563;28;20123;-74
2024/02/08 10:23:00;;;;;;;14.07;3.40;;;4.70;99.90;;;;;;5070278;22;20079;-75
2024/02/08 10:28:25;;;;;;;8.80;2.60;;;4.80;99.90;;;;;;5053673;28;20044;-78
2024/02/08 10:31:12;;;;;;;16.75;3.60;;;4.90;99.90;;;;;;5051446;28;20035;-73
2024/02/08 10:33:38;;;;;;;20.48;4.22;;;4.90;99.90;;;;;;5053889;28;20403;-77
2024/02/08 10:36:15;;;;;;;12.60;3.63;;;4.90;99.90;;;;;;5053482;28;20072;-76
2024/02/08 10:38:56;;;;;;;12.95;3.20;;;4.90;99.90;;;;;;5036767;28;20047;-74
2024/02/08 10:41:35;;;;;;;12.75;4.40;;;5.00;99.90;;;;;;5053397;28;20080;-74
2024/02/08 10:44:05;;;;;;;10.20;3.70;;;4.90;99.90;;;;;;5071297;28;20059;-74
2024/02/08 10:46:34;;;;;;;9.75;3.13;;;4.90;99.90;;;;;;5053235;28;20049;-74
2024/02/08 10:49:08;;;;;;;11.32;3.05;;;4.90;99.90;;;;;;5053675;28;20036;-74
2024/02/08 10:51:43;;;;;;;14.57;2.70;;;4.80;99.90;;;;;;5053620;28;20040;-76
2024/02/08 10:54:15;;;;;;;11.98;2.83;;;4.90;99.90;;;;;;5054075;28;20036;-75
2024/02/08 10:56:48;;;;;;;13.82;3.55;;;4.90;99.90;;;;;;5052473;28;20111;-77
2024/02/08 10:59:15;;;;;;;6.82;2.50;;;4.90;99.90;;;;;;5052919;28;20101;-75
2024/02/08 11:04:30;;;;;;;7.60;2.75;;;4.70;99.90;;;;;;5071222;28;20087;-75
2024/02/08 11:09:44;;;;;;;9.60;3.10;;;4.70;99.90;;;;;;5052931;28;20044;-75
2024/02/08 11:12:09;;;;;;;12.43;2.83;;;4.60;99.90;;;;;;5053034;28;20041;-74
2024/02/08 11:14:41;;;;;;;13.07;3.35;;;4.70;99.90;;;;;;5053405;28;20039;-75
2024/02/08 11:17:22;;;;;;;13.55;3.20;;;4.70;99.90;;;;;;5055167;28;20514;-75
2024/02/08 11:19:49;;;;;;;9.90;2.72;;;4.70;99.90;;;;;;5074841;28;20048;-75
2024/02/08 11:25:33;;;;;;;12.82;3.40;;;4.70;99.90;;;;;;5074857;28;20041;-75
2024/02/08 11:28:10;;;;;;;12.75;4.38;;;4.70;99.90;;;;;;5056698;28;20036;-75
2024/02/08 11:30:36;;;;;;;15.65;3.28;;;4.70;99.90;;;;;;5056567;28;20085;-76
2024/02/08 11:33:03;;;;;;;13.60;3.13;;;4.70;99.90;;;;;;5074722;28;20037;-75
2024/02/08 11:35:30;;;;;;;7.85;3.13;;;4.60;99.90;;;;;;5056670;28;20045;-75
2024/02/08 11:38:16;;;;;;;13.70;3.65;;;4.50;99.90;;;;;;5056624;28;20551;-75
2024/02/08 11:40:45;;;;;;;10.48;3.00;;;4.60;99.90;;;;;;5056366;28;20047;-74
2024/02/08 11:43:24;;;;;;;12.65;3.70;;;4.60;99.90;;;;;;5039823;28;20044;-75
2024/02/08 11:45:54;;;;;;;10.32;3.17;;;4.50;99.90;;;;;;5056484;28;20051;-75
2024/02/08 11:48:26;;;;;;;9.32;3.25;;;4.60;99.90;;;;;;5039860;28;20090;-74
2024/02/08 11:50:58;;;;;;;11.05;3.42;;;4.50;99.90;;;;;;5074075;28;20063;-75
2024/02/08 11:53:33;;;;;;;12.23;4.53;;;4.50;99.90;;;;;;5074379;28;20049;-74
2024/02/08 11:56:07;;;;;;;17.58;3.83;;;4.60;99.90;;;;;;5039576;28;20289;-74
2024/02/08 11:58:35;;;;;;;10.45;3.53;;;4.50;99.90;;;;;;5056119;28;20123;-75
2024/02/08 12:01:05;;;;;;;11.55;4.18;;;4.50;99.90;;;;;;5055849;28;20082;-75
2024/02/08 12:03:31;;;;;;;12.30;4.82;;;4.60;99.90;;;;;;5074017;28;20527;-74
2024/02/08 12:05:57;;;;;;;13.82;4.35;;;4.60;99.90;;;;;;5055922;28;20041;-76
2024/02/08 12:08:23;;;;;;;14.38;4.10;;;4.50;99.90;;;;;;5056526;28;20043;-74
2024/02/08 12:10:52;;;;;;;14.20;5.07;;;4.60;99.90;;;;;;5074328;28;20058;-75
2024/02/08 12:13:38;;;;;;;12.48;4.05;;;4.70;99.90;;;;;;5055968;28;20093;-74
2024/02/08 12:16:04;;;;;;;19.27;4.38;;;4.60;99.90;;;;;;5055870;28;20044;-75
2024/02/08 12:18:30;;;;;;;15.65;3.05;;;4.60;99.90;;;;;;5055721;28;20093;-75
2024/02/08 12:21:00;;;;;;;11.75;3.35;;;4.50;99.90;;;;;;5073517;28;20115;-74
2024/02/08 12:23:30;;;;;;;8.55;2.75;;;4.50;99.90;;;;;;5039436;28;20119;-74
2024/02/08 12:26:08;;;;;;;9.10;3.25;;;4.60;99.90;;;;;;5055725;28;20047;-76
2024/02/08 12:28:42;;;;;;;16.48;3.65;;;4.60;99.90;;;;;;5054546;28;20044;-76
2024/02/08 12:31:16;;;;;;;10.95;3.28;;;4.60;99.90;;;;;;5055418;28;20037;-76
2024/02/08 12:33:45;;;;;;;14.95;3.40;;;4.60;99.90;;;;;;5055609;28;20056;-76
2024/02/08 12:36:13;;;;;;;12.30;2.90;;;4.60;99.90;;;;;;5055716;28;20123;-76
2024/02/08 12:38:42;;;;;;;13.70;3.90;;;4.70;99.90;;;;;;5073206;28;20142;-75
2024/02/08 12:41:09;;;;;;;22.02;5.60;;;4.60;99.90;;;;;;5055182;28;20045;-76
2024/02/08 12:43:37;;;;;;;19.05;6.60;;;4.70;99.90;;;;;;5055431;28;20040;-76
2024/02/08 12:46:07;;;;;;;16.48;5.80;;;4.70;99.90;;;;;;5055446;28;20040;-76
2024/02/08 12:48:34;;;;;;;14.48;4.53;;;4.60;99.90;;;;;;5073150;28;20028;-76
2024/02/08 12:51:03;;;;;;;17.20;5.63;;;4.60;99.90;;;;;;5055034;28;20072;-75
2024/02/08 12:53:30;;;;;;;12.88;4.25;;;4.70;99.90;;;;;;5055110;28;20039;-77
2024/02/08 12:56:10;;;;;;;15.50;4.32;;;4.70;99.90;;;;;;5055256;28;20067;-74
2024/02/08 12:58:36;;;;;;;13.77;3.08;;;4.60;99.90;;;;;;5034289;28;20069;-75
2024/02/08 13:01:07;;;;;;;17.40;5.13;;;4.60;99.90;;;;;;5050554;28;20055;-74
2024/02/08 13:03:37;;;;;;;11.18;3.08;;;4.70;99.90;;;;;;5046817;28;20041;-74
2024/02/08 13:06:04;;;;;;;12.98;2.97;;;4.70;99.90;;;;;;5054804;28;20083;-74
2024/02/08 13:08:33;;;;;;;10.02;3.17;;;4.70;99.90;;;;;;5038100;28;20550;-74
2024/02/08 13:11:01;;;;;;;15.60;5.50;;;4.70;99.90;;;;;;5054797;28;20067;-75
2024/02/08 13:13:27;;;;;;;10.88;3.30;;;4.80;99.90;;;;;;5046325;28;20037;-75
2024/02/08 13:16:01;;;;;;;10.45;3.08;;;4.70;99.90;;;;;;5038081;28;20040;-74
2024/02/08 13:18:29;;;;;;;16.05;3.60;;;4.70;99.90;;;;;;5054624;28;20044;-75
2024/02/08 13:20:58;;;;;;;16.83;3.70;;;4.70;99.90;;;;;;5054584;28;20423;-74
2024/02/08 13:23:27;;;;;;;8.25;3.60;;;4.70;99.90;;;;;;5072758;28;20048;-74
2024/02/08 13:25:54;;;;;;;11.88;3.42;;;4.70;99.90;;;;;;5054526;28;20443;-74
2024/02/08 13:28:27;;;;;;;12.68;4.25;;;4.80;99.90;;;;;;5054586;28;20082;-74
2024/02/08 13:30:58;;;;;;;9.73;3.70;;;4.80;99.90;;;;;;5037671;28;20071;-74
2024/02/08 13:33:28;;;;;;;13.13;3.40;;;4.70;99.90;;;;;;5037871;28;20037;-74
2024/02/08 13:35:54;;;;;;;19.80;3.75;;;4.70;99.90;;;;;;5054573;28;20098;-75
2024/02/08 13:38:22;;;;;;;12.10;3.83;;;4.70;99.90;;;;;;5072213;28;20040;-75
2024/02/08 13:40:53;;;;;;;11.85;2.67;;;4.60;99.90;;;;;;5053644;28;20119;-74
2024/02/08 13:43:19;;;;;;;9.80;2.67;;;4.70;99.90;;;;;;5045869;28;20130;-74
2024/02/08 13:45:46;;;;;;;9.57;2.72;;;4.60;99.90;;;;;;5072010;28;20465;-75
2024/02/08 13:48:15;;;;;;;6.72;2.10;;;4.60;99.90;;;;;;5054070;28;20037;-75
2024/02/08 13:50:46;;;;;;;3.30;0.85;;;4.50;99.90;;;;;;5053804;28;20047;-75
2024/02/08 13:53:15;;;;;;;4.88;1.67;;;4.50;99.90;;;;;;5046135;28;20044;-75
2024/02/08 13:55:45;;;;;;;2.45;0.77;;;4.40;99.90;;;;;;5053990;28;20581;-75
2024/02/08 13:58:14;;;;;;;3.03;0.50;;;4.40;99.90;;;;;;5053862;28;20049;-75
2024/02/08 14:00:41;;;;;;;2.55;0.50;;;4.30;99.90;;;;;;5053666;28;20052;-75
2024/02/08 14:03:08;;;;;;;3.67;1.05;;;4.30;99.90;;;;;;5071936;28;20073;-75
2024/02/08 14:05:39;;;;;;;4.95;1.67;;;4.30;99.90;;;;;;5071794;28;20044;-75
2024/02/08 14:08:09;;;;;;;1.80;0.55;;;4.30;99.90;;;;;;5071692;28;20068;-75
2024/02/08 14:10:36;;;;;;;1.15;0.68;;;4.30;99.90;;;;;;5037257;28;20029;-75
2024/02/08 14:13:06;;;;;;;4.22;0.68;;;4.30;99.90;;;;;;5053687;28;20044;-75
2024/02/08 14:15:38;;;;;;;4.47;0.90;;;4.20;99.90;;;;;;5053912;28;20442;-75
2024/02/08 14:18:22;;;;;;;4.38;1.33;;;4.20;99.90;;;;;;5071750;28;20128;-75
2024/02/08 14:20:58;;;;;;;3.05;0.77;;;4.10;99.90;;;;;;5053472;28;20041;-75
2024/02/08 14:23:30;;;;;;;4.65;0.80;;;4.10;99.90;;;;;;5053718;28;20051;-75
2024/02/08 14:26:49;;;;;;;1.85;0.40;;;4.00;99.90;;;;;;5071859;28;20037;-76
2024/02/08 14:28:48;;;;;;;1.45;0.52;;;3.80;99.90;;;;;;5046213;28;20048;-74
2024/02/08 14:31:17;;;;;;;3.40;0.90;;;3.80;99.90;;;;;;5053471;28;20450;-75
2024/02/08 14:33:45;;;;;;;5.25;0.55;;;3.60;99.90;;;;;;5053630;28;20043;-74
2024/02/08 14:36:17;;;;;;;2.65;0.55;;;3.60;99.90;;;;;;5071665;28;20420;-75
2024/02/08 14:38:48;;;;;;;5.07;1.42;;;3.60;99.90;;;;;;5053772;28;20404;-75
2024/02/08 14:41:26;;;;;;;7.68;1.58;;;3.50;99.90;;;;;;5053304;28;20066;-75
2024/02/08 14:44:00;;;;;;;8.95;2.58;;;3.60;99.90;;;;;;5053482;28;20036;-75
2024/02/08 14:46:25;;;;;;;6.35;1.40;;;3.40;99.90;;;;;;5036801;28;20048;-75
2024/02/08 14:48:52;;;;;;;8.25;1.60;;;3.20;99.90;;;;;;5053371;28;20115;-74
2024/02/08 14:53:53;;;;;;;3.35;1.45;;;2.90;99.90;;;;;;5057449;28;20055;-74
2024/02/08 14:56:19;;;;;;;2.63;0.75;;;2.80;99.90;;;;;;5057645;28;20047;-74
2024/02/08 14:59:09;;;;;;;2.30;1.05;;;2.80;99.90;;;;;;5057317;28;20123;-74
2024/02/08 15:01:39;;;;;;;9.48;2.45;;;2.70;99.90;;;;;;5075114;28;20044;-74
2024/02/08 15:04:21;;;;;;;4.22;1.10;;;2.60;99.90;;;;;;5057263;28;20044;-74
2024/02/08 15:14:35;;;;;;;6.00;2.25;;;2.50;99.90;;;;;;5057000;28;20468;-74
2024/02/08 15:17:08;;;;;;;3.30;1.88;;;2.40;99.90;;;;;;5057389;28;20597;-74
2024/02/08 15:19:45;;;;;;;5.70;2.23;;;2.50;99.90;;;;;;5057035;28;20052;-73
2024/02/08 15:22:18;;;;;;;5.65;2.10;;;2.30;99.90;;;;;;5056107;28;20086;-75
2024/02/08 15:24:48;;;;;;;7.65;4.10;;;2.30;99.90;;;;;;5053568;28;20032;-75
2024/02/08 15:27:31;;;;;;;3.38;1.83;;;2.10;99.90;;;;;;5039850;28;20039;-75
2024/02/08 15:30:10;;;;;;;4.75;2.05;;;2.00;99.90;;;;;;5057026;28;20049;-75
2024/02/08 15:35:36;;;;;;;7.93;1.75;;;2.10;99.90;;;;;;5050539;28;20121;-75